Time;durP1;ratioP1;P1;durP2;ratioP2;P2;SDS_P1;SDS_P2;PMS_P1;PMS_P2;Temp;Humidity;BMP_temperature;BMP_pressure;BME280_temperature;BME280_humidity;BME280_pressure;Samples;Min_cycle;Max_cycle;Signal;HPM_P1;HPM_P2
2021/06/23 00:00:52;;;;;;;4.78;2.05;;;20.10;99.90;;;;;;5070976;28;20237;-58
2021/06/23 00:03:19;;;;;;;8.55;2.20;;;20.20;99.90;;;;;;5070982;28;20212;-58
2021/06/23 00:05:45;;;;;;;6.38;2.15;;;20.00;99.90;;;;;;5070649;28;20216;-58
2021/06/23 00:08:13;;;;;;;3.15;1.85;;;19.90;99.90;;;;;;5071021;28;20603;-58
2021/06/23 00:10:40;;;;;;;3.92;2.13;;;19.80;99.90;;;;;;5070923;28;20236;-58
2021/06/23 00:13:08;;;;;;;3.33;2.33;;;19.80;99.90;;;;;;5071018;28;20406;-58
2021/06/23 00:15:35;;;;;;;6.88;1.95;;;19.80;99.90;;;;;;5070790;28;20237;-58
2021/06/23 00:18:03;;;;;;;6.25;2.20;;;19.90;99.90;;;;;;5071127;28;20212;-58
2021/06/23 00:20:30;;;;;;;3.35;2.58;;;19.80;99.90;;;;;;5070912;28;20231;-58
2021/06/23 00:22:57;;;;;;;3.00;2.20;;;19.90;99.90;;;;;;5070809;28;20209;-58
2021/06/23 00:25:25;;;;;;;2.95;2.25;;;20.00;99.90;;;;;;5070533;28;20224;-58
2021/06/23 00:27:51;;;;;;;3.80;2.22;;;20.10;99.90;;;;;;5070602;28;20681;-58
2021/06/23 00:30:19;;;;;;;5.70;2.00;;;20.10;99.90;;;;;;5070645;28;20684;-58
2021/06/23 00:32:47;;;;;;;4.20;2.22;;;20.10;99.90;;;;;;5070620;28;20212;-58
2021/06/23 00:35:14;;;;;;;6.00;2.05;;;20.10;99.90;;;;;;5070979;28;20228;-58
2021/06/23 00:37:41;;;;;;;3.55;2.13;;;20.10;99.90;;;;;;5072508;28;20383;-58
2021/06/23 00:40:10;;;;;;;2.45;2.00;;;20.00;99.90;;;;;;5074791;28;20204;-58
2021/06/23 00:42:40;;;;;;;3.25;2.22;;;20.00;99.90;;;;;;5074907;28;20220;-58
2021/06/23 00:45:10;;;;;;;6.35;2.50;;;20.00;99.90;;;;;;5074906;28;20649;-58
2021/06/23 00:47:36;;;;;;;5.40;2.10;;;20.00;99.90;;;;;;5074477;28;20201;-58
2021/06/23 00:50:06;;;;;;;4.55;2.30;;;19.90;99.90;;;;;;5074772;28;20200;-58
2021/06/23 00:52:34;;;;;;;4.35;2.10;;;19.80;99.90;;;;;;5074549;28;20301;-59
2021/06/23 00:55:01;;;;;;;2.92;2.22;;;19.80;99.90;;;;;;5074456;28;20208;-58
2021/06/23 00:57:28;;;;;;;4.22;2.30;;;19.80;99.90;;;;;;5074399;28;20208;-58
2021/06/23 00:59:56;;;;;;;6.25;2.67;;;19.70;99.90;;;;;;5074182;28;20212;-58
2021/06/23 01:02:24;;;;;;;2.70;2.50;;;19.70;99.90;;;;;;5074306;28;20268;-58
2021/06/23 01:04:52;;;;;;;3.58;2.50;;;19.70;99.90;;;;;;5074352;28;20669;-58
2021/06/23 01:07:20;;;;;;;4.50;2.55;;;19.60;99.90;;;;;;5074679;28;20586;-58
2021/06/23 01:09:48;;;;;;;7.60;2.80;;;19.60;99.90;;;;;;5074034;28;20208;-58
2021/06/23 01:12:26;;;;;;;7.28;2.80;;;19.70;99.90;;;;;;5073953;28;20739;-58
2021/06/23 01:14:59;;;;;;;3.40;2.35;;;19.70;99.90;;;;;;5074205;28;20208;-59
2021/06/23 01:17:28;;;;;;;3.38;2.63;;;19.80;99.90;;;;;;5073978;28;20205;-59
2021/06/23 01:20:05;;;;;;;6.00;2.85;;;19.80;99.90;;;;;;5074008;28;20205;-59
2021/06/23 01:22:33;;;;;;;5.47;2.67;;;19.80;99.90;;;;;;5073803;28;20278;-59
2021/06/23 01:25:01;;;;;;;4.18;2.70;;;19.80;99.90;;;;;;5073532;28;20672;-59
2021/06/23 01:27:27;;;;;;;7.68;2.75;;;19.70;99.90;;;;;;5073927;28;20205;-59
2021/06/23 01:29:54;;;;;;;4.95;2.90;;;19.60;99.90;;;;;;5073488;28;20582;-59
2021/06/23 01:32:21;;;;;;;6.18;2.85;;;19.60;99.90;;;;;;5073482;28;20594;-59
2021/06/23 01:34:48;;;;;;;4.85;2.60;;;19.60;99.90;;;;;;5073565;28;20216;-59
2021/06/23 01:37:14;;;;;;;6.90;2.63;;;19.60;99.90;;;;;;5073498;28;20197;-59
2021/06/23 01:39:42;;;;;;;2.58;2.38;;;19.70;99.90;;;;;;5073521;28;20296;-59
2021/06/23 01:42:09;;;;;;;3.58;2.55;;;19.70;99.90;;;;;;5073621;28;20244;-59
2021/06/23 01:44:36;;;;;;;5.45;2.78;;;19.60;99.90;;;;;;5073460;28;20607;-59
2021/06/23 01:47:04;;;;;;;3.60;2.90;;;19.70;99.90;;;;;;5073568;28;20236;-59
2021/06/23 01:49:30;;;;;;;6.43;2.53;;;19.70;99.90;;;;;;5073189;28;20217;-59
2021/06/23 01:51:57;;;;;;;6.28;2.80;;;19.70;99.90;;;;;;5073108;28;20224;-59
2021/06/23 01:54:24;;;;;;;5.15;3.00;;;19.80;99.90;;;;;;5073455;28;20212;-59
2021/06/23 01:56:52;;;;;;;5.60;2.85;;;19.80;99.90;;;;;;5073319;28;20197;-59
2021/06/23 01:59:19;;;;;;;5.65;2.88;;;19.80;99.90;;;;;;5073304;28;20216;-59
2021/06/23 02:02:06;;;;;;;5.18;2.70;;;19.70;99.90;;;;;;5095612;23;20235;-62
2021/06/23 02:04:43;;;;;;;3.05;2.75;;;19.70;99.90;;;;;;5073581;28;20201;-62
2021/06/23 02:07:40;;;;;;;3.08;2.70;;;19.70;99.90;;;;;;5073444;28;20235;-62
2021/06/23 02:10:39;;;;;;;3.92;2.80;;;19.60;99.90;;;;;;5073085;28;20209;-62
2021/06/23 02:13:45;;;;;;;3.75;2.50;;;19.60;99.90;;;;;;5049418;28;20206;-62
2021/06/23 02:16:14;;;;;;;4.20;2.80;;;19.60;99.90;;;;;;5053003;28;20205;-63
2021/06/23 02:18:41;;;;;;;3.03;2.70;;;19.60;99.90;;;;;;5052767;28;20209;-62
2021/06/23 02:21:08;;;;;;;3.33;2.90;;;19.60;99.90;;;;;;5052607;28;20260;-63
2021/06/23 02:23:37;;;;;;;3.20;2.55;;;19.50;99.90;;;;;;5052818;28;20209;-62
2021/06/23 02:26:05;;;;;;;5.68;3.22;;;19.60;99.90;;;;;;5052848;28;20236;-61
2021/06/23 02:28:33;;;;;;;6.18;3.60;;;19.60;99.90;;;;;;5052722;28;20419;-62
2021/06/23 02:30:59;;;;;;;5.60;3.83;;;19.60;99.90;;;;;;5052592;28;20225;-62
2021/06/23 02:33:28;;;;;;;4.63;3.20;;;19.40;99.90;;;;;;5052602;28;20356;-62
2021/06/23 02:35:56;;;;;;;4.03;3.15;;;19.40;99.90;;;;;;5052650;28;20202;-63
2021/06/23 02:38:24;;;;;;;5.88;2.95;;;19.30;99.90;;;;;;5052422;28;20211;-63
2021/06/23 02:40:51;;;;;;;5.88;3.05;;;19.20;99.90;;;;;;5052390;28;20233;-62
2021/06/23 02:43:19;;;;;;;3.97;2.72;;;19.00;99.90;;;;;;5052343;28;20719;-62
2021/06/23 02:45:46;;;;;;;3.78;2.75;;;19.00;99.90;;;;;;5052068;28;20222;-63
2021/06/23 02:48:13;;;;;;;4.28;2.70;;;18.80;99.90;;;;;;5052003;28;20594;-62
2021/06/23 02:50:55;;;;;;;6.88;2.80;;;18.70;99.90;;;;;;5051864;28;20263;-63
2021/06/23 02:53:23;;;;;;;4.00;2.42;;;18.70;99.90;;;;;;5052221;28;20213;-63
2021/06/23 02:55:50;;;;;;;3.90;2.63;;;18.70;99.90;;;;;;5052177;28;20477;-62
2021/06/23 02:58:18;;;;;;;7.03;2.92;;;18.70;99.90;;;;;;5051816;28;20301;-62
2021/06/23 03:00:45;;;;;;;4.38;2.72;;;18.70;99.90;;;;;;5051042;28;20210;-62
2021/06/23 03:03:11;;;;;;;5.25;2.85;;;18.70;99.90;;;;;;5052195;28;20497;-62
2021/06/23 03:05:38;;;;;;;5.15;3.47;;;18.80;99.90;;;;;;5051803;28;20209;-62
2021/06/23 03:08:08;;;;;;;5.07;3.50;;;18.90;99.90;;;;;;5051762;28;20209;-62
2021/06/23 03:10:35;;;;;;;4.63;2.95;;;19.00;99.90;;;;;;5051884;28;20205;-63
2021/06/23 03:13:02;;;;;;;4.13;3.13;;;19.00;99.90;;;;;;5051815;28;20226;-62
2021/06/23 03:15:29;;;;;;;6.30;4.18;;;19.10;99.90;;;;;;5051364;28;20216;-64
2021/06/23 03:17:56;;;;;;;4.07;3.30;;;19.10;99.90;;;;;;5051504;28;20669;-62
2021/06/23 03:20:22;;;;;;;4.00;2.97;;;18.70;99.90;;;;;;5051745;28;20209;-62
2021/06/23 03:22:49;;;;;;;4.75;2.70;;;19.20;99.90;;;;;;5051458;28;20225;-62
2021/06/23 03:25:17;;;;;;;6.50;3.65;;;19.20;99.90;;;;;;5051393;28;20212;-63
2021/06/23 03:27:51;;;;;;;2.85;2.53;;;19.20;99.90;;;;;;5051252;28;20229;-64
2021/06/23 03:30:19;;;;;;;3.63;2.60;;;19.20;99.90;;;;;;5051975;28;20204;-62
2021/06/23 03:32:48;;;;;;;3.08;2.75;;;19.10;99.90;;;;;;5051503;28;20287;-62
2021/06/23 03:35:15;;;;;;;3.28;2.60;;;19.10;99.90;;;;;;5051243;28;20201;-63
2021/06/23 03:37:42;;;;;;;3.25;2.58;;;19.10;99.90;;;;;;5051288;28;20258;-62
2021/06/23 03:40:09;;;;;;;3.83;2.30;;;19.10;99.90;;;;;;5051150;28;20703;-62
2021/06/23 03:42:37;;;;;;;2.53;2.20;;;19.10;99.90;;;;;;5050973;28;20713;-62
2021/06/23 03:45:05;;;;;;;4.97;3.38;;;19.10;99.90;;;;;;5051111;28;20205;-63
2021/06/23 03:47:32;;;;;;;4.53;2.90;;;19.10;99.90;;;;;;5051006;28;20233;-62
2021/06/23 03:49:58;;;;;;;8.15;4.88;;;19.10;99.90;;;;;;5050850;28;20210;-62
2021/06/23 03:52:25;;;;;;;9.85;3.28;;;19.00;99.90;;;;;;5050716;28;20233;-62
2021/06/23 03:54:52;;;;;;;4.25;3.60;;;19.00;99.90;;;;;;5050709;28;20215;-62
2021/06/23 03:57:19;;;;;;;5.15;3.20;;;19.00;99.90;;;;;;5051041;28;20202;-63
2021/06/23 03:59:47;;;;;;;5.32;3.88;;;19.00;99.90;;;;;;5050913;28;20213;-63
2021/06/23 04:02:14;;;;;;;4.18;3.20;;;19.10;99.90;;;;;;5050705;28;20238;-63
2021/06/23 04:04:40;;;;;;;5.05;3.00;;;19.10;99.90;;;;;;5050886;28;20206;-63
2021/06/23 04:07:07;;;;;;;5.50;2.97;;;19.10;99.90;;;;;;5050844;28;20226;-63
2021/06/23 04:09:34;;;;;;;3.90;2.88;;;19.10;99.90;;;;;;5050526;28;20601;-63
2021/06/23 04:12:00;;;;;;;6.60;2.83;;;19.10;99.90;;;;;;5050891;28;20261;-62
2021/06/23 04:14:28;;;;;;;6.35;5.75;;;19.10;99.90;;;;;;5050608;28;20212;-63
2021/06/23 04:16:57;;;;;;;3.50;3.10;;;19.20;99.90;;;;;;5050744;28;20216;-63
2021/06/23 04:19:23;;;;;;;3.53;2.55;;;19.30;99.90;;;;;;5050465;28;20634;-62
2021/06/23 04:21:50;;;;;;;5.70;3.80;;;19.20;99.90;;;;;;5050566;28;20233;-62
2021/06/23 04:24:17;;;;;;;6.30;4.10;;;19.00;99.90;;;;;;5050297;28;20213;-63
2021/06/23 04:26:45;;;;;;;5.97;4.10;;;18.90;99.90;;;;;;5050485;28;20221;-62
2021/06/23 04:29:12;;;;;;;5.68;4.35;;;18.80;99.90;;;;;;5050555;28;20647;-63
2021/06/23 04:31:39;;;;;;;9.48;4.53;;;18.90;99.90;;;;;;5050414;28;20245;-61
2021/06/23 04:34:07;;;;;;;7.57;4.00;;;19.00;99.90;;;;;;5050357;28;20201;-62
2021/06/23 04:36:34;;;;;;;4.20;3.38;;;19.10;99.90;;;;;;5050452;28;20229;-62
2021/06/23 04:39:01;;;;;;;3.72;3.17;;;19.20;99.90;;;;;;5050450;28;20216;-61
2021/06/23 04:41:27;;;;;;;5.80;3.22;;;19.30;99.90;;;;;;5050304;28;20240;-62
2021/06/23 04:43:54;;;;;;;6.65;2.95;;;19.50;99.90;;;;;;5050304;28;20213;-64
2021/06/23 04:46:21;;;;;;;2.97;2.60;;;19.80;99.90;;;;;;5050065;28;20205;-62
2021/06/23 04:48:47;;;;;;;4.00;2.42;;;20.80;99.90;;;;;;5050010;28;20213;-62
2021/06/23 04:51:17;;;;;;;1.90;1.80;;;22.60;99.90;;;;;;5050014;28;20737;-63
2021/06/23 04:53:44;;;;;;;3.30;1.83;;;24.50;99.90;;;;;;5050405;28;20208;-61
2021/06/23 04:56:11;;;;;;;2.90;1.88;;;26.50;99.90;;;;;;5050554;28;20213;-63
2021/06/23 04:58:38;;;;;;;3.67;1.75;;;28.00;99.90;;;;;;5050298;28;20254;-62
2021/06/23 05:01:04;;;;;;;1.80;1.70;;;29.00;99.90;;;;;;5049997;28;20340;-62
2021/06/23 05:03:31;;;;;;;2.25;2.05;;;29.70;99.90;;;;;;5049835;28;20214;-63
2021/06/23 05:05:59;;;;;;;2.83;2.38;;;30.00;99.90;;;;;;5050205;28;20218;-62
2021/06/23 05:08:29;;;;;;;2.38;2.17;;;29.90;99.90;;;;;;5050422;28;20267;-62
2021/06/23 05:10:55;;;;;;;3.85;2.42;;;29.80;99.90;;;;;;5050355;28;20277;-63
2021/06/23 05:13:22;;;;;;;2.53;2.33;;;30.20;99.40;;;;;;5050955;28;20210;-62
2021/06/23 05:15:49;;;;;;;2.67;2.20;;;30.40;98.20;;;;;;5050854;28;20205;-62
2021/06/23 05:18:16;;;;;;;3.60;2.30;;;29.70;98.50;;;;;;5050423;28;20212;-63
2021/06/23 05:20:43;;;;;;;2.65;2.45;;;28.50;99.90;;;;;;5050346;28;20259;-64
2021/06/23 05:23:10;;;;;;;5.22;3.00;;;26.80;99.90;;;;;;5051001;28;20251;-63
2021/06/23 05:25:38;;;;;;;4.10;2.95;;;25.40;99.90;;;;;;5053826;28;20205;-62
2021/06/23 05:28:05;;;;;;;3.30;3.00;;;24.30;99.90;;;;;;5053570;28;20705;-62
2021/06/23 05:30:32;;;;;;;3.40;3.00;;;23.50;99.90;;;;;;5053787;28;20212;-62
2021/06/23 05:32:59;;;;;;;4.25;3.80;;;23.20;99.90;;;;;;5053493;28;20229;-62
2021/06/23 05:35:26;;;;;;;5.88;3.70;;;22.70;99.90;;;;;;5053696;28;20216;-63
2021/06/23 05:37:52;;;;;;;5.03;3.50;;;22.50;99.90;;;;;;5053960;28;20489;-63
2021/06/23 05:40:19;;;;;;;4.60;3.08;;;22.60;99.90;;;;;;5053921;28;20214;-62
2021/06/23 05:42:47;;;;;;;5.45;2.75;;;23.50;99.90;;;;;;5053377;28;20225;-63
2021/06/23 05:45:15;;;;;;;2.35;2.15;;;25.00;99.90;;;;;;5053136;28;20232;-62
2021/06/23 05:47:41;;;;;;;3.88;2.58;;;27.10;99.90;;;;;;5053574;28;20225;-63
2021/06/23 05:50:09;;;;;;;3.75;2.28;;;28.90;99.90;;;;;;5053552;28;20201;-61
2021/06/23 05:52:36;;;;;;;2.67;2.10;;;30.30;99.90;;;;;;5053294;28;20252;-63
2021/06/23 05:55:04;;;;;;;4.82;2.40;;;31.50;97.60;;;;;;5053165;28;20637;-62
2021/06/23 05:57:31;;;;;;;2.33;1.80;;;32.60;94.30;;;;;;5053448;28;20204;-62
2021/06/23 05:59:59;;;;;;;3.13;1.98;;;33.40;91.70;;;;;;5052712;28;20205;-63
2021/06/23 06:02:25;;;;;;;2.13;1.80;;;34.20;87.40;;;;;;5053311;28;20740;-64
2021/06/23 06:04:52;;;;;;;2.97;1.58;;;34.60;84.10;;;;;;5053379;28;20202;-63
2021/06/23 06:07:20;;;;;;;3.20;1.77;;;35.00;81.00;;;;;;5053307;28;20240;-62
2021/06/23 06:09:47;;;;;;;2.67;1.50;;;35.50;78.20;;;;;;5053169;28;20211;-63
2021/06/23 06:12:14;;;;;;;2.30;1.50;;;36.30;75.10;;;;;;5053075;28;20230;-62
2021/06/23 06:14:40;;;;;;;1.95;1.52;;;37.40;70.60;;;;;;5052831;28;20213;-64
2021/06/23 06:17:08;;;;;;;0.90;0.90;;;38.40;63.90;;;;;;5053455;28;20198;-62
2021/06/23 06:19:35;;;;;;;2.72;0.93;;;39.20;60.10;;;;;;5053218;28;20206;-63
2021/06/23 06:22:02;;;;;;;2.20;0.90;;;40.00;56.80;;;;;;5052801;28;20614;-63
2021/06/23 06:24:28;;;;;;;2.60;0.88;;;40.80;54.90;;;;;;5052931;28;20284;-64
2021/06/23 06:26:55;;;;;;;2.80;1.00;;;41.60;52.50;;;;;;5052574;28;20599;-64
2021/06/23 06:29:22;;;;;;;2.80;1.10;;;40.90;51.60;;;;;;5052713;28;20209;-62
2021/06/23 06:31:48;;;;;;;2.80;1.15;;;39.50;53.30;;;;;;5052606;28;20237;-64
2021/06/23 06:34:16;;;;;;;2.78;0.80;;;38.10;56.20;;;;;;5052179;28;20209;-64
2021/06/23 06:36:44;;;;;;;0.95;0.70;;;38.40;56.10;;;;;;5051941;28;20236;-64
2021/06/23 06:39:11;;;;;;;0.88;0.70;;;39.50;53.10;;;;;;5052301;28;20216;-62
2021/06/23 06:41:37;;;;;;;0.98;0.88;;;39.60;50.30;;;;;;5052238;28;20229;-63
2021/06/23 06:44:04;;;;;;;2.08;0.52;;;38.70;49.80;;;;;;5052395;28;20488;-63
2021/06/23 06:46:31;;;;;;;2.97;1.15;;;37.50;52.10;;;;;;5052193;28;20213;-63
2021/06/23 06:48:58;;;;;;;4.43;0.77;;;36.50;52.50;;;;;;5051799;28;20231;-62
2021/06/23 06:51:26;;;;;;;3.63;1.00;;;35.60;55.10;;;;;;5052064;28;20221;-63
2021/06/23 06:53:53;;;;;;;3.20;0.90;;;34.40;58.90;;;;;;5051994;28;20208;-62
2021/06/23 06:56:19;;;;;;;1.58;0.70;;;33.20;62.30;;;;;;5052065;28;20213;-62
2021/06/23 06:58:46;;;;;;;1.60;1.02;;;32.10;65.80;;;;;;5051978;28;20267;-62
2021/06/23 07:01:13;;;;;;;1.60;0.75;;;31.10;68.80;;;;;;5051764;28;20233;-61
2021/06/23 07:03:39;;;;;;;1.00;0.80;;;30.20;70.90;;;;;;5051755;28;20248;-62
2021/06/23 07:06:06;;;;;;;0.77;0.60;;;29.70;72.50;;;;;;5051622;28;20205;-62
2021/06/23 07:08:34;;;;;;;1.58;0.80;;;29.80;73.00;;;;;;5051598;28;20231;-62
2021/06/23 07:11:01;;;;;;;4.45;0.93;;;30.10;72.70;;;;;;5052200;28;20589;-62
2021/06/23 07:13:28;;;;;;;1.17;1.00;;;30.40;72.80;;;;;;5051944;28;20267;-62
2021/06/23 07:15:54;;;;;;;1.85;0.70;;;30.80;72.40;;;;;;5052260;28;20202;-62
2021/06/23 07:18:21;;;;;;;1.10;0.88;;;31.70;69.40;;;;;;5051638;28;20208;-61
2021/06/23 07:20:48;;;;;;;1.50;0.80;;;33.00;67.10;;;;;;5051711;28;20201;-62
2021/06/23 07:23:15;;;;;;;0.63;0.63;;;34.40;62.80;;;;;;5051497;28;20209;-62
2021/06/23 07:25:43;;;;;;;1.98;0.85;;;35.70;60.10;;;;;;5051439;28;20213;-63
2021/06/23 07:28:12;;;;;;;1.08;0.52;;;37.20;56.80;;;;;;5051338;28;20276;-62
2021/06/23 07:30:40;;;;;;;1.50;0.75;;;37.70;55.10;;;;;;5051338;28;20621;-63
2021/06/23 07:33:08;;;;;;;1.17;0.80;;;37.80;54.90;;;;;;5051517;28;20205;-63
2021/06/23 07:38:19;;;;;;;0.68;0.65;;;39.70;50.60;;;;;;5051373;28;20678;-62
2021/06/23 07:40:54;;;;;;;1.27;0.80;;;39.40;51.10;;;;;;5051437;28;20213;-62
2021/06/23 07:43:21;;;;;;;0.60;0.60;;;39.80;49.70;;;;;;5051301;28;20205;-61
2021/06/23 07:45:51;;;;;;;3.42;0.95;;;40.20;48.00;;;;;;5051102;28;20201;-62
2021/06/23 07:48:21;;;;;;;0.43;0.43;;;40.60;46.20;;;;;;5051082;28;20217;-62
2021/06/23 07:50:51;;;;;;;1.30;1.00;;;40.80;45.70;;;;;;5051231;28;20209;-62
2021/06/23 07:53:23;;;;;;;0.82;0.63;;;40.80;46.10;;;;;;5051180;28;20205;-62
2021/06/23 07:55:56;;;;;;;2.55;0.65;;;40.80;45.60;;;;;;5051091;28;20271;-61
2021/06/23 08:09:36;;;;;;;0.65;0.65;;;42.20;42.30;;;;;;5050949;28;20204;-63
2021/06/23 08:14:48;;;;;;;2.63;0.80;;;42.30;42.90;;;;;;5050745;28;20568;-63
2021/06/23 08:17:15;;;;;;;1.63;0.77;;;42.50;42.60;;;;;;5050849;28;20212;-62
2021/06/23 08:19:41;;;;;;;0.60;0.60;;;42.60;41.90;;;;;;5050783;28;20465;-62
2021/06/23 08:22:11;;;;;;;3.40;0.65;;;42.50;41.30;;;;;;5050923;28;20228;-61
2021/06/23 08:24:38;;;;;;;1.38;0.70;;;42.60;41.80;;;;;;5050937;28;20205;-61
2021/06/23 08:27:07;;;;;;;0.95;0.63;;;42.70;40.80;;;;;;5050726;28;20204;-63
2021/06/23 08:29:34;;;;;;;1.63;0.90;;;42.60;41.30;;;;;;5050553;28;20233;-63
2021/06/23 08:32:01;;;;;;;2.53;0.70;;;42.60;40.80;;;;;;5050335;28;20229;-63
2021/06/23 08:34:29;;;;;;;1.00;0.52;;;42.70;40.60;;;;;;5050616;28;20572;-65
2021/06/23 08:36:56;;;;;;;1.35;0.70;;;42.60;40.00;;;;;;5051113;28;20216;-62
2021/06/23 08:39:23;;;;;;;1.20;0.70;;;42.20;41.30;;;;;;5050735;28;20209;-62
2021/06/23 08:41:50;;;;;;;1.98;0.70;;;42.30;41.40;;;;;;5050839;28;20229;-62
2021/06/23 08:44:18;;;;;;;2.83;0.80;;;42.60;40.80;;;;;;5050547;28;20213;-62
2021/06/23 08:46:49;;;;;;;2.10;0.75;;;42.50;40.70;;;;;;5050962;28;20221;-62
2021/06/23 08:49:16;;;;;;;0.60;0.50;;;41.80;41.40;;;;;;5050467;28;20279;-62
2021/06/23 08:51:44;;;;;;;1.35;0.80;;;41.10;42.40;;;;;;5050471;28;20225;-62
2021/06/23 08:54:11;;;;;;;2.58;2.05;;;39.90;43.90;;;;;;5050373;28;20487;-62
2021/06/23 08:56:39;;;;;;;2.28;0.98;;;38.50;46.10;;;;;;5050440;28;20213;-62
2021/06/23 08:59:06;;;;;;;1.40;0.90;;;37.20;48.00;;;;;;5052127;28;20205;-62
2021/06/23 09:01:34;;;;;;;1.95;0.80;;;36.00;50.00;;;;;;5054232;28;20233;-62
2021/06/23 09:04:04;;;;;;;4.85;1.30;;;35.00;51.40;;;;;;5054008;28;20608;-62
2021/06/23 09:06:44;;;;;;;1.77;0.90;;;34.00;53.70;;;;;;5054195;28;20209;-62
2021/06/23 09:09:25;;;;;;;0.95;0.73;;;33.10;55.40;;;;;;5053847;28;20236;-62
2021/06/23 09:11:54;;;;;;;2.33;0.98;;;32.30;55.90;;;;;;5054287;28;20247;-62
2021/06/23 09:14:21;;;;;;;7.22;1.45;;;31.70;58.00;;;;;;5054211;28;20588;-62
2021/06/23 09:17:07;;;;;;;4.10;0.98;;;31.10;59.40;;;;;;5053990;28;20210;-63
2021/06/23 09:19:36;;;;;;;3.85;1.08;;;30.80;59.90;;;;;;5053538;28;20206;-62
2021/06/23 09:22:05;;;;;;;4.05;1.10;;;30.40;61.20;;;;;;5053332;28;20312;-62
2021/06/23 09:24:39;;;;;;;2.35;1.00;;;30.20;62.40;;;;;;5053780;28;20205;-63
2021/06/23 09:27:19;;;;;;;1.55;0.80;;;30.00;62.70;;;;;;5053750;28;20313;-62
2021/06/23 09:29:46;;;;;;;1.35;0.70;;;29.80;61.30;;;;;;5053697;28;20225;-62
2021/06/23 09:32:15;;;;;;;0.60;0.60;;;29.70;61.90;;;;;;5053679;28;20233;-62
2021/06/23 09:34:43;;;;;;;2.17;0.80;;;29.40;63.30;;;;;;5053513;28;20210;-63
2021/06/23 09:37:25;;;;;;;0.95;0.65;;;28.90;63.60;;;;;;5054231;28;20241;-61
2021/06/23 09:40:09;;;;;;;1.35;0.70;;;28.60;64.70;;;;;;5053756;28;20205;-61
2021/06/23 09:42:39;;;;;;;2.28;0.50;;;28.50;63.90;;;;;;5053513;28;20222;-61
2021/06/23 09:45:07;;;;;;;1.17;0.70;;;28.50;64.40;;;;;;5053770;28;20448;-61
2021/06/23 09:47:36;;;;;;;2.67;0.88;;;28.30;66.10;;;;;;5053504;28;20209;-61
2021/06/23 09:50:04;;;;;;;3.08;0.70;;;28.20;67.10;;;;;;5053467;28;20202;-61
2021/06/23 09:52:31;;;;;;;1.92;0.75;;;28.10;66.00;;;;;;5053346;28;20715;-61
2021/06/23 09:55:00;;;;;;;0.90;0.60;;;28.00;66.50;;;;;;5053135;28;20209;-61
2021/06/23 09:57:27;;;;;;;1.83;0.60;;;28.00;66.60;;;;;;5053144;28;20691;-61
2021/06/23 10:00:08;;;;;;;0.80;0.70;;;28.00;67.00;;;;;;5053032;28;20227;-62
2021/06/23 10:02:37;;;;;;;0.55;0.55;;;27.90;67.30;;;;;;5052996;28;20244;-62
2021/06/23 10:05:27;;;;;;;0.95;0.57;;;27.80;66.90;;;;;;5053285;28;20279;-62
2021/06/23 10:07:53;;;;;;;0.50;0.50;;;27.70;68.40;;;;;;5053541;28;20579;-63
2021/06/23 10:10:24;;;;;;;0.77;0.50;;;27.70;67.60;;;;;;5053535;28;20224;-62
2021/06/23 10:12:52;;;;;;;0.60;0.60;;;27.60;68.60;;;;;;5053324;28;20226;-61
2021/06/23 10:15:20;;;;;;;1.15;0.68;;;27.60;69.60;;;;;;5052994;28;20212;-62
2021/06/23 10:17:48;;;;;;;0.75;0.70;;;27.80;68.60;;;;;;5052577;28;20739;-62
2021/06/23 10:20:17;;;;;;;0.95;0.63;;;28.00;67.30;;;;;;5052656;28;20213;-62
2021/06/23 10:22:45;;;;;;;0.63;0.40;;;28.10;67.80;;;;;;5052753;28;20259;-62
2021/06/23 10:25:14;;;;;;;1.33;0.90;;;28.10;68.10;;;;;;5053094;28;20588;-62
2021/06/23 10:27:43;;;;;;;1.90;0.45;;;28.30;67.70;;;;;;5054213;28;20210;-62
2021/06/23 10:30:11;;;;;;;1.13;0.50;;;28.40;67.70;;;;;;5054160;28;20263;-62
2021/06/23 10:32:38;;;;;;;1.25;0.70;;;28.50;66.50;;;;;;5054087;28;20233;-61
2021/06/23 10:35:07;;;;;;;1.30;0.50;;;28.50;67.10;;;;;;5048266;28;20860;-63
2021/06/23 10:37:36;;;;;;;0.75;0.60;;;28.60;67.80;;;;;;5035552;28;20210;-63
2021/06/23 10:40:06;;;;;;;0.52;0.50;;;28.90;66.70;;;;;;5032338;28;20211;-61
2021/06/23 10:42:33;;;;;;;1.27;0.60;;;29.20;65.00;;;;;;5032304;28;20312;-61
2021/06/23 10:45:00;;;;;;;2.53;0.68;;;29.30;64.10;;;;;;5032231;28;20611;-64
2021/06/23 10:47:33;;;;;;;1.73;0.80;;;29.30;64.70;;;;;;5031981;28;20210;-63
2021/06/23 10:50:00;;;;;;;2.20;1.48;;;29.50;64.10;;;;;;5032098;28;20233;-63
2021/06/23 10:52:42;;;;;;;1.10;0.60;;;29.80;64.00;;;;;;5032261;28;20241;-63
2021/06/23 10:55:37;;;;;;;1.90;0.60;;;30.30;63.00;;;;;;5032062;28;20202;-61
2021/06/23 10:58:06;;;;;;;0.52;0.50;;;30.80;61.50;;;;;;5031940;28;20697;-62
2021/06/23 11:00:33;;;;;;;0.70;0.60;;;31.20;60.90;;;;;;5032011;28;20710;-62
2021/06/23 11:03:02;;;;;;;0.68;0.60;;;31.40;60.90;;;;;;5031522;28;20231;-62
2021/06/23 11:05:38;;;;;;;0.32;0.30;;;31.50;60.80;;;;;;5031894;28;20217;-62
2021/06/23 11:08:28;;;;;;;0.47;0.47;;;31.40;60.40;;;;;;5031863;28;20225;-65
2021/06/23 11:10:56;;;;;;;0.52;0.50;;;31.30;60.60;;;;;;5031872;28;20206;-62
2021/06/23 11:13:24;;;;;;;0.88;0.40;;;31.00;60.80;;;;;;5031728;28;20206;-62
2021/06/23 11:15:53;;;;;;;1.20;0.55;;;30.70;61.30;;;;;;5031908;28;20256;-62
2021/06/23 11:18:25;;;;;;;0.55;0.47;;;30.40;62.40;;;;;;5031638;28;20234;-61
2021/06/23 11:20:54;;;;;;;2.95;0.63;;;30.20;62.60;;;;;;5030874;28;20207;-63
2021/06/23 11:23:55;;;;;;;1.75;0.75;;;30.10;63.30;;;;;;5031745;28;20587;-63
2021/06/23 11:26:51;;;;;;;1.30;1.10;;;29.80;63.80;;;;;;5031324;28;20207;-62
2021/06/23 11:29:31;;;;;;;0.75;0.50;;;29.80;64.20;;;;;;5030864;28;20233;-59
2021/06/23 11:32:03;;;;;;;0.43;0.40;;;30.20;63.00;;;;;;5031618;28;20299;-60
2021/06/23 11:34:55;;;;;;;0.40;0.30;;;30.40;61.30;;;;;;5031153;28;20323;-60
2021/06/23 11:37:25;;;;;;;1.17;0.60;;;30.50;60.60;;;;;;5049621;28;20210;-61
2021/06/23 11:40:08;;;;;;;0.88;0.57;;;30.70;60.50;;;;;;5051208;28;20205;-60
2021/06/23 11:42:35;;;;;;;0.63;0.60;;;31.00;61.30;;;;;;5051231;28;20236;-62
2021/06/23 11:45:02;;;;;;;1.73;0.52;;;30.90;60.70;;;;;;5050638;28;20505;-62
2021/06/23 11:47:29;;;;;;;1.05;0.70;;;30.70;60.90;;;;;;5037357;28;20233;-61
2021/06/23 11:49:55;;;;;;;0.68;0.50;;;30.60;60.60;;;;;;5030525;28;20226;-59
2021/06/23 11:52:22;;;;;;;1.30;0.50;;;30.50;60.80;;;;;;5031229;28;20713;-62
2021/06/23 11:54:49;;;;;;;0.38;0.38;;;30.40;61.70;;;;;;5030982;28;20213;-62
2021/06/23 11:57:17;;;;;;;0.80;0.50;;;30.40;61.90;;;;;;5030959;28;20680;-63
2021/06/23 11:59:44;;;;;;;0.55;0.55;;;30.50;62.20;;;;;;5031015;28;20203;-63
2021/06/23 12:02:11;;;;;;;1.25;0.50;;;30.30;63.20;;;;;;5030748;28;20328;-63
2021/06/23 12:04:38;;;;;;;0.82;0.50;;;30.20;62.80;;;;;;5030770;28;20693;-63
2021/06/23 12:07:05;;;;;;;0.40;0.40;;;30.10;63.20;;;;;;5031015;28;20241;-64
2021/06/23 12:09:32;;;;;;;0.65;0.50;;;30.20;63.00;;;;;;5031266;28;20226;-64
2021/06/23 12:11:59;;;;;;;0.68;0.68;;;30.40;62.10;;;;;;5030849;28;20232;-62
2021/06/23 12:14:27;;;;;;;0.60;0.60;;;30.70;61.50;;;;;;5030988;28;20237;-64
2021/06/23 12:16:53;;;;;;;1.65;0.60;;;30.90;61.10;;;;;;5030730;28;20206;-65
2021/06/23 12:19:20;;;;;;;0.75;0.70;;;31.20;59.70;;;;;;5030750;28;20199;-64
2021/06/23 12:21:47;;;;;;;2.35;0.60;;;31.50;59.50;;;;;;5030786;28;20230;-62
2021/06/23 12:24:14;;;;;;;4.03;0.60;;;31.70;58.80;;;;;;5030679;28;20584;-63
2021/06/23 12:26:40;;;;;;;3.40;0.85;;;31.70;58.30;;;;;;5030781;28;20229;-64
2021/06/23 12:29:07;;;;;;;0.50;0.50;;;31.70;59.10;;;;;;5030517;28;20226;-64
2021/06/23 12:31:35;;;;;;;0.85;0.47;;;31.60;59.30;;;;;;5030612;28;20602;-62
2021/06/23 12:34:08;;;;;;;0.85;0.52;;;31.50;58.80;;;;;;5032726;28;20205;-62
2021/06/23 12:36:34;;;;;;;1.00;0.70;;;31.30;58.80;;;;;;5034861;28;20210;-63
2021/06/23 12:39:01;;;;;;;0.60;0.55;;;31.10;59.30;;;;;;5034482;28;20213;-63
2021/06/23 12:41:28;;;;;;;1.70;0.70;;;30.90;59.20;;;;;;5034298;28;20257;-62
2021/06/23 12:43:54;;;;;;;4.10;0.60;;;30.40;60.70;;;;;;5034241;28;20210;-63
2021/06/23 12:46:22;;;;;;;1.05;0.50;;;30.10;62.20;;;;;;5034064;28;20209;-64
2021/06/23 12:48:50;;;;;;;0.90;0.70;;;30.00;61.60;;;;;;5034205;28;20201;-65
2021/06/23 12:51:17;;;;;;;1.38;0.70;;;30.10;61.70;;;;;;5034302;28;20639;-69
2021/06/23 12:53:44;;;;;;;1.38;0.90;;;30.30;61.60;;;;;;5034292;28;20209;-59
2021/06/23 12:56:10;;;;;;;1.45;0.70;;;30.40;60.70;;;;;;5034196;28;20698;-59
2021/06/23 12:58:37;;;;;;;0.77;0.70;;;30.60;60.20;;;;;;5033885;28;20344;-59
2021/06/23 13:01:04;;;;;;;0.95;0.52;;;30.80;60.20;;;;;;5033706;28;20238;-61
2021/06/23 13:03:31;;;;;;;1.08;0.63;;;31.10;59.80;;;;;;5034202;28;20213;-57
2021/06/23 13:06:01;;;;;;;0.57;0.50;;;31.20;58.90;;;;;;5034175;28;20309;-58
2021/06/23 13:08:27;;;;;;;0.47;0.47;;;31.10;58.30;;;;;;5033884;28;20585;-58
2021/06/23 13:10:54;;;;;;;1.50;0.77;;;30.90;58.20;;;;;;5033805;28;20605;-58
2021/06/23 13:13:21;;;;;;;0.57;0.55;;;31.00;58.00;;;;;;5033840;28;20213;-59